FDPP

Piggs Peak

Piggs Peak, Swaziland
METAR FDPP 191600Z AUTO 09004KT //// // ////// 19/11 Q1021
Observed Flight Rules
Oct-19 @ 16:00 UTC (4 hours ago)
Wind
90° at 4 knots
Temperatures Readings
Current 19°C / 66°F
Dewpoint 11°C / 52°F
Humidity 60%
Altimeter 30.15" Hg
Pressure 1021 hPa
Elevation 1099
METAR FDPP 191600Z AUTO 09004KT //// // ////// 19/11 Q1021
Observed Flight Rules
Oct-19 @ 16:00 UTC
(4 hours ago)
Wind
90° at 4 knots
Temperature Dewpoint
19°C / 66°F 11°C / 52°F
Humidity Altimeter Pressure
60% 30.15" Hg 1021 hPa